KCPS/CPS METAR and TAF weather

Enter ICAO airport designator
Station Type Date Time Source
KCPS METAR 2021/09/25 12:19 UTC NOAA

KCPS 251219Z 00000KT 10SM BR CLR 12/12 A3013 RMK AO2 T01170117


Station Type Date Time Source
KCPS Decoded METAR 2021/09/25 12:19 UTC NOAA

ST LOUIS DOWNTOWN AIRPORT, IL, United States (KCPS) 38-34N 090-09W 126M
Sep 25, 2021 - 08:19 AM EDT / 2021.09.25 1219 UTC
Wind: Calm:0
Visibility: 10 mile(s):0
Sky conditions: clear
Weather: mist
Temperature: 53.1 F (11.7 C)
Dew Point: 53.1 F (11.7 C)
Relative Humidity: 100%
Pressure (altimeter): 30.13 in. Hg (1020 hPa)
ob: KCPS 251219Z 00000KT 10SM BR CLR 12/12 A3013 RMK AO2 T01170117
cycle: 12

Station Type Date Time Source
KCPS TAF 2021/09/25 12:30 UTC NOAA

TAF KCPS 251128Z 2512/2612 VRB04KT 3SM BR SKC
FM251400 29005KT P6SM SKC

Example: see airport list